Terminal Aerodrome Forecast
Issued by NWS

Home | Current Version | Previous Version | Text Only | Print | Product List | Glossary On
Versions: 1 2 3 4 5 6 7 8 9 10 11 12 13 14 15 16 17 18 19 20 21 22
000
FTUS41 KBTV 211700
TAFMSS
TAF
KMSS 211725Z 2118/2218 05010KT P6SM VCSH SCT006 OVC010
     FM220000 04010KT P6SM VCSH OVC015
     FM220600 04010KT P6SM VCSH OVC030
     FM221200 03011KT P6SM VCSH BKN050=

USA.gov is the U.S. government's official web portal to all federal, state and local government web resources and services.